createdAt,value
2022-12-17T00:01:48.932Z,427.00
2022-12-17T00:07:20.665Z,426.00
2022-12-17T00:12:52.123Z,426.00
2022-12-17T00:18:24.238Z,425.00
2022-12-17T00:23:57.165Z,422.00
2022-12-17T00:29:29.033Z,422.00
2022-12-17T00:35:00.966Z,424.00
2022-12-17T00:40:32.830Z,425.00
2022-12-17T00:46:04.575Z,425.00
2022-12-17T00:51:36.256Z,426.00
2022-12-17T00:57:08.167Z,421.00
2022-12-17T01:02:40.029Z,416.00
2022-12-17T01:08:11.999Z,418.00
2022-12-17T01:13:43.541Z,420.00
2022-12-17T01:19:15.349Z,417.00
2022-12-17T01:24:47.249Z,418.00
2022-12-17T01:35:48.697Z,420.00
2022-12-17T01:41:20.521Z,421.00
2022-12-17T01:46:52.476Z,426.00
2022-12-17T01:52:24.390Z,426.00
2022-12-17T01:57:56.118Z,425.00
2022-12-17T02:03:27.666Z,425.00
2022-12-17T02:08:59.185Z,426.00
2022-12-17T02:14:31.371Z,424.00
2022-12-17T02:20:03.079Z,419.00
2022-12-17T02:25:34.979Z,420.00
2022-12-17T02:31:06.789Z,418.00
2022-12-17T02:36:38.434Z,416.00
2022-12-17T02:42:09.923Z,418.00
2022-12-17T02:47:41.497Z,421.00
2022-12-17T02:53:13.527Z,421.00
2022-12-17T02:58:45.126Z,421.00
2022-12-17T03:04:16.726Z,419.00
2022-12-17T03:09:48.611Z,421.00
2022-12-17T03:15:20.778Z,422.00
2022-12-17T03:20:52.897Z,421.00
2022-12-17T03:26:24.499Z,423.00
2022-12-17T03:31:56.411Z,424.00
2022-12-17T03:37:28.188Z,424.00
2022-12-17T03:42:59.888Z,423.00
2022-12-17T03:48:31.902Z,422.00
2022-12-17T03:54:03.781Z,418.00
2022-12-17T03:59:35.571Z,418.00
2022-12-17T04:05:07.245Z,419.00
2022-12-17T04:10:38.918Z,420.00
2022-12-17T04:16:10.810Z,423.00
2022-12-17T04:21:42.789Z,421.00
2022-12-17T04:27:14.499Z,421.00
2022-12-17T04:32:46.412Z,424.00
2022-12-17T04:38:20.046Z,420.00
2022-12-17T04:43:51.776Z,425.00
2022-12-17T04:49:23.588Z,423.00
2022-12-17T04:54:55.187Z,430.00
2022-12-17T05:00:27.037Z,431.00
2022-12-17T05:05:58.619Z,430.00
2022-12-17T05:11:30.500Z,429.00
2022-12-17T05:17:02.634Z,435.00
2022-12-17T05:22:34.535Z,433.00
2022-12-17T05:28:06.200Z,434.00
2022-12-17T05:33:38.486Z,435.00
2022-12-17T05:39:09.771Z,438.00
2022-12-17T05:44:41.705Z,438.00
2022-12-17T05:50:13.340Z,439.00
2022-12-17T05:55:45.162Z,438.00
2022-12-17T06:01:16.969Z,443.00
2022-12-17T06:06:48.850Z,440.00
2022-12-17T06:12:20.665Z,439.00
2022-12-17T06:17:52.527Z,440.00
2022-12-17T06:23:24.584Z,440.00
2022-12-17T06:28:56.372Z,440.00
2022-12-17T06:34:28.351Z,438.00
2022-12-17T06:39:59.843Z,439.00
2022-12-17T06:45:31.916Z,439.00
2022-12-17T06:51:03.679Z,445.00
2022-12-17T06:56:35.657Z,445.00
2022-12-17T07:02:07.969Z,445.00
2022-12-17T07:07:39.521Z,447.00
2022-12-17T07:13:11.311Z,447.00
2022-12-17T07:18:43.110Z,447.00
2022-12-17T07:24:14.896Z,449.00
2022-12-17T07:29:46.621Z,454.00
2022-12-17T07:35:18.265Z,454.00
2022-12-17T07:40:50.336Z,459.00
2022-12-17T07:46:22.162Z,456.00
2022-12-17T07:51:53.946Z,460.00
2022-12-17T07:57:25.691Z,458.00
2022-12-17T08:02:57.808Z,464.00
2022-12-17T08:13:59.159Z,468.00
2022-12-17T08:19:31.426Z,468.00
2022-12-17T08:25:03.274Z,466.00
2022-12-17T08:30:35.156Z,464.00
2022-12-17T08:36:07.024Z,462.00
2022-12-17T08:41:38.599Z,460.00
2022-12-17T08:47:10.650Z,462.00
2022-12-17T08:52:42.241Z,458.00
2022-12-17T08:58:18.086Z,462.00
2022-12-17T09:00:51.407Z,460.00
2022-12-17T09:06:27.644Z,455.00
2022-12-17T09:12:04.446Z,456.00
2022-12-17T09:17:36.297Z,456.00
2022-12-17T09:23:08.064Z,460.00
2022-12-17T09:28:42.298Z,454.00
